Grosse Ile, MI

4:00 AM EDT on October 21, 2017 (GMT -0400)
Grosse Ile Municipal

Weather History for KONZ - April, 2014

Change the Weather History Date:

Tuesday, April 22, 2014

  Actual Average (KDTW) Record (KDTW)
Temperature  
Mean Temperature 52 °F -  
Max Temperature 62 °F 60 °F 87 °F (1980)
Min Temperature 42 °F 40 °F 20 °F (1875)
Degree Days  
Heating Degree Days 13    
Growing Degree Days 2 (Base 50)    
Moisture  
Dew Point 42 °F    
Average Humidity 64    
Maximum Humidity 94    
Minimum Humidity 41    
Precipitation  
Precipitation 0.00 in - - ()
Sea Level Pressure  
Sea Level Pressure 29.76 in    
Wind  
Wind Speed 11 mph (WNW)    
Max Wind Speed 22 mph    
Max Gust Speed 36 mph    
Visibility 10 miles    
Events Rain    
Averages and records for this station are not official NWS values.
T = Trace of Precipitation, MM = Missing Value Source: NWS Daily Summary

Daily Weather History Graph

Daily Weather History Graph

Search for Another Location

Airport or City:

Trip Planner

Search our weather history database for the weather conditions in past years. The results will help you decide how hot, cold, wet, or windy it might be!

Date:

Astronomy

Apr. 22, 2014 Rise Set
Actual Time 6:41 AM EDT 8:21 PM EDT
Civil Twilight 6:11 AM EDT 8:51 PM EDT
Nautical Twilight 5:35 AM EDT 9:27 PM EDT
Astronomical Twilight 4:57 AM EDT 10:06 PM EDT
Moon 2:36 AM EDT (4/22) 1:14 PM EDT (4/22)
Length of Visible Light 14h 39m
Length of Day
13h 40m
Last Quarter, 46% of the Moon is Illuminated
Apr 22
Last Quarter
Apr 29
New
May 6
First Quarter
May 14
Full
May 21
Last Quarter

Hourly Weather History & Observations

Time (EDT) Temp. Windchill Dew Point Humidity Pressure Visibility Wind Dir Wind Speed Gust Speed Precip Events Conditions
12:14 AM 62.6 °F - 53.6 °F 72% 29.75 in 10.0 mi West 9.2 mph - N/A   Overcast
12:34 AM 62.6 °F - 53.6 °F 72% 29.75 in 10.0 mi West 8.1 mph - N/A   Mostly Cloudy
12:54 AM 62.6 °F - 53.6 °F 72% 29.74 in 10.0 mi West 5.8 mph - N/A   Mostly Cloudy
1:14 AM 62.6 °F - 53.6 °F 72% 29.74 in 10.0 mi WSW 6.9 mph - N/A   Mostly Cloudy
1:34 AM 60.8 °F - 53.6 °F 77% 29.73 in 10.0 mi West 6.9 mph - N/A   Overcast
1:54 AM 60.8 °F - 53.6 °F 77% 29.72 in 10.0 mi WSW 3.5 mph - N/A   Mostly Cloudy
2:14 AM 60.8 °F - 53.6 °F 77% 29.70 in 10.0 mi SW 3.5 mph - N/A   Mostly Cloudy
2:34 AM 60.8 °F - 53.6 °F 77% 29.70 in 10.0 mi SW 4.6 mph - N/A   Overcast
2:54 AM 59.0 °F - 53.6 °F 82% 29.69 in 10.0 mi SSW 3.5 mph - N/A   Overcast
3:14 AM 60.8 °F - 53.6 °F 77% 29.68 in 10.0 mi SW 4.6 mph - N/A Rain Rain
3:34 AM 60.8 °F - 53.6 °F 77% 29.68 in 10.0 mi SW 6.9 mph - N/A Rain Light Rain
3:54 AM 60.8 °F - 55.4 °F 82% 29.67 in 10.0 mi WSW 10.4 mph - N/A   Drizzle
4:14 AM 59.0 °F - 55.4 °F 88% 29.67 in 10.0 mi WSW 9.2 mph - N/A Rain Light Rain
4:34 AM 59.0 °F - 55.4 °F 88% 29.66 in 10.0 mi WSW 9.2 mph - N/A   Overcast
4:54 AM 59.0 °F - 55.4 °F 88% 29.66 in 10.0 mi WSW 6.9 mph - N/A   Overcast
5:15 AM 59.0 °F - 55.4 °F 88% 29.66 in 10.0 mi WSW 5.8 mph - N/A   Overcast
5:34 AM 59.0 °F - 55.4 °F 88% 29.66 in 10.0 mi West 6.9 mph - N/A   Overcast
5:54 AM 59.0 °F - 55.4 °F 88% 29.66 in 10.0 mi West 6.9 mph - N/A   Overcast
6:14 AM 57.2 °F - 55.4 °F 94% 29.66 in 10.0 mi West 6.9 mph - N/A   Mostly Cloudy
6:34 AM 59.0 °F - 55.4 °F 88% 29.66 in 7.0 mi West 4.6 mph - N/A   Overcast
6:54 AM 59.0 °F - 55.4 °F 88% 29.66 in 7.0 mi West 5.8 mph - N/A   Overcast
7:14 AM 59.0 °F - 55.4 °F 88% 29.67 in 7.0 mi West 5.8 mph - N/A   Overcast
7:34 AM 59.0 °F - 55.4 °F 88% 29.67 in 7.0 mi West 8.1 mph - N/A   Overcast
7:54 AM 59.0 °F - 55.4 °F 88% 29.68 in 5.0 mi WNW 11.5 mph - N/A   Overcast
8:14 AM 59.0 °F - 53.6 °F 82% 29.68 in 5.0 mi WNW 9.2 mph 17.3 mph N/A   Haze
8:34 AM 57.2 °F - 51.8 °F 82% 29.70 in 5.0 mi NW 18.4 mph 21.9 mph N/A   Haze
8:54 AM 55.4 °F - 51.8 °F 88% 29.71 in 7.0 mi NW 19.6 mph 26.5 mph N/A   Overcast
9:14 AM 53.6 °F - 48.2 °F 82% 29.71 in 10.0 mi NW 13.8 mph 19.6 mph N/A   Overcast
9:34 AM 51.8 °F - 46.4 °F 82% 29.72 in 10.0 mi NW 11.5 mph 21.9 mph N/A   Overcast
9:54 AM 53.6 °F - 46.4 °F 77% 29.73 in 10.0 mi NW 15.0 mph - N/A   Overcast
10:14 AM 51.8 °F - 42.8 °F 71% 29.73 in 10.0 mi NNW 18.4 mph 24.2 mph N/A   Mostly Cloudy
10:34 AM 51.8 °F - 42.8 °F 71% 29.74 in 10.0 mi WNW 15.0 mph 21.9 mph N/A   Scattered Clouds
10:54 AM 53.6 °F - 39.2 °F 58% 29.74 in 10.0 mi WNW 16.1 mph 21.9 mph N/A   Clear
11:14 AM 53.6 °F - 39.2 °F 58% 29.75 in 10.0 mi NW 13.8 mph 18.4 mph N/A   Clear
11:34 AM 53.6 °F - 37.4 °F 54% 29.75 in 10.0 mi WNW 17.3 mph 23.0 mph N/A   Clear
11:55 AM 53.6 °F - 37.4 °F 54% 29.75 in 10.0 mi NW 17.3 mph 24.2 mph N/A   Clear
12:14 PM 53.6 °F - 37.4 °F 54% 29.75 in 10.0 mi NW 20.7 mph 24.2 mph N/A   Clear
12:34 PM 55.4 °F - 35.6 °F 47% 29.75 in 10.0 mi NW 20.7 mph 25.3 mph N/A   Clear
12:54 PM 55.4 °F - 35.6 °F 47% 29.75 in 10.0 mi NW 18.4 mph 25.3 mph N/A   Clear
1:14 PM 55.4 °F - 35.6 °F 47% 29.75 in 10.0 mi NW 19.6 mph 25.3 mph N/A   Clear
1:34 PM 55.4 °F - 33.8 °F 44% 29.75 in 10.0 mi WNW 18.4 mph 24.2 mph N/A   Clear
1:54 PM 55.4 °F - 33.8 °F 44% 29.75 in 10.0 mi NW 20.7 mph 26.5 mph N/A   Clear
2:14 PM 57.2 °F - 33.8 °F 41% 29.75 in 10.0 mi WNW 19.6 mph 24.2 mph N/A   Scattered Clouds
2:34 PM 55.4 °F - 33.8 °F 44% 29.76 in 10.0 mi NW 21.9 mph 27.6 mph N/A   Mostly Cloudy
2:54 PM 55.4 °F - 32.0 °F 41% 29.76 in 10.0 mi NW 21.9 mph 32.2 mph N/A   Mostly Cloudy
3:14 PM 55.4 °F - 32.0 °F 41% 29.76 in 10.0 mi NW 18.4 mph 27.6 mph N/A   Overcast
3:34 PM 55.4 °F - 32.0 °F 41% 29.76 in 10.0 mi WNW 16.1 mph 28.8 mph N/A   Overcast
3:54 PM 55.4 °F - 32.0 °F 41% 29.77 in 10.0 mi WNW 16.1 mph - N/A   Mostly Cloudy
4:14 PM 53.6 °F - 32.0 °F 44% 29.77 in 10.0 mi NNW 18.4 mph 24.2 mph N/A   Overcast
4:34 PM 53.6 °F - 32.0 °F 44% 29.77 in 10.0 mi WNW 16.1 mph 24.2 mph N/A   Overcast
4:54 PM 53.6 °F - 32.0 °F 44% 29.78 in 10.0 mi NW 13.8 mph 21.9 mph N/A   Overcast
5:14 PM 53.6 °F - 32.0 °F 44% 29.78 in 10.0 mi WNW 20.7 mph 26.5 mph N/A   Overcast
5:34 PM 53.6 °F - 33.8 °F 47% 29.79 in 10.0 mi NW 17.3 mph 21.9 mph N/A   Overcast
5:54 PM 51.8 °F - 33.8 °F 50% 29.79 in 10.0 mi NW 19.6 mph 26.5 mph N/A   Overcast
6:14 PM 51.8 °F - 33.8 °F 50% 29.80 in 10.0 mi NNW 21.9 mph 27.6 mph N/A   Overcast
6:34 PM 51.8 °F - 33.8 °F 50% 29.81 in 10.0 mi NW 21.9 mph 31.1 mph N/A   Overcast
6:54 PM 50.0 °F - 33.8 °F 54% 29.82 in 10.0 mi WNW 19.6 mph 26.5 mph N/A   Overcast
7:14 PM 50.0 °F - 33.8 °F 54% 29.83 in 10.0 mi NW 19.6 mph 28.8 mph N/A   Overcast
7:34 PM 48.2 °F - 32.0 °F 54% 29.84 in 10.0 mi NW 21.9 mph 35.7 mph N/A   Overcast
7:54 PM 46.4 °F 39.0 °F 32.0 °F 57% 29.85 in 10.0 mi NW 19.6 mph 27.6 mph N/A   Overcast
8:14 PM 46.4 °F 40.1 °F 32.0 °F 57% 29.86 in 10.0 mi NW 15.0 mph 19.6 mph N/A   Overcast
8:34 PM 46.4 °F 40.1 °F 32.0 °F 57% 29.86 in 10.0 mi NW 15.0 mph 26.5 mph N/A   Overcast
8:54 PM 46.4 °F 38.7 °F 32.0 °F 57% 29.87 in 10.0 mi NW 20.7 mph 28.8 mph N/A   Mostly Cloudy
9:14 PM 46.4 °F 39.0 °F 30.2 °F 53% 29.88 in 10.0 mi NW 19.6 mph 25.3 mph N/A   Overcast
9:34 PM 46.4 °F 40.4 °F 30.2 °F 53% 29.89 in 10.0 mi NW 13.8 mph 24.2 mph N/A   Overcast
9:54 PM 46.4 °F 39.5 °F 30.2 °F 53% 29.90 in 10.0 mi NNW 17.3 mph 26.5 mph N/A   Overcast
10:14 PM 44.6 °F 37.4 °F 30.2 °F 57% 29.91 in 10.0 mi NW 16.1 mph 20.7 mph N/A   Overcast
10:34 PM 44.6 °F 36.6 °F 28.4 °F 53% 29.91 in 10.0 mi NW 19.6 mph 32.2 mph N/A   Overcast
10:54 PM 44.6 °F 37.4 °F 30.2 °F 57% 29.91 in 10.0 mi NW 16.1 mph 20.7 mph N/A   Overcast
11:14 PM 44.6 °F 38.4 °F 30.2 °F 57% 29.91 in 10.0 mi NNW 12.7 mph 18.4 mph N/A   Overcast
11:34 PM 42.8 °F 35.4 °F 30.2 °F 61% 29.91 in 10.0 mi NW 15.0 mph 24.2 mph N/A   Overcast
11:54 PM 42.8 °F 35.1 °F 30.2 °F 61% 29.91 in 10.0 mi NNW 16.1 mph 21.9 mph N/A   Scattered Clouds